Time;durP1;ratioP1;P1;durP2;ratioP2;P2;SDS_P1;SDS_P2;PMS_P1;PMS_P2;Temp;Humidity;BMP_temperature;BMP_pressure;BME280_temperature;BME280_humidity;BME280_pressure;Samples;Min_cycle;Max_cycle;Signal;HPM_P1;HPM_P2
2023/09/20 00:00:33;;;;;;;;;;;;;;;12.83;100.00;96464.66;5106317;28;19959;-72
2023/09/20 00:02:59;;;;;;;;;;;;;;;12.81;100.00;96471.97;5071802;28;19940;-72
2023/09/20 00:05:26;;;;;;;;;;;;;;;12.81;100.00;96471.97;5106455;28;19956;-72
2023/09/20 00:07:55;;;;;;;;;;;;;;;12.80;100.00;96470.34;5106268;28;19958;-72
2023/09/20 00:10:24;;;;;;;;;;;;;;;12.79;100.00;96468.78;5087506;28;19967;-73
2023/09/20 00:12:50;;;;;;;;;;;;;;;12.81;100.00;96469.34;5105951;28;19956;-72
2023/09/20 00:15:16;;;;;;;;;;;;;;;12.78;100.00;96464.53;5106171;28;19988;-72
2023/09/20 00:17:42;;;;;;;;;;;;;;;12.76;100.00;96467.38;5105457;28;19954;-79
2023/09/20 00:20:16;;;;;;;;;;;;;;;12.74;100.00;96474.72;5105426;28;19951;-71
2023/09/20 00:22:43;;;;;;;;;;;;;;;12.71;100.00;96469.91;5087647;28;20245;-71
2023/09/20 00:25:13;;;;;;;;;;;;;;;12.70;100.00;96462.25;5026803;28;19958;-72
2023/09/20 00:27:40;;;;;;;;;;;;;;;12.68;100.00;96459.88;5043628;28;19964;-72
2023/09/20 00:30:10;;;;;;;;;;;;;;;12.67;100.00;96457.47;5027155;28;20316;-72
2023/09/20 00:32:36;;;;;;;;;;;;;;;12.69;100.00;96465.94;5027307;28;19958;-71
2023/09/20 00:35:02;;;;;;;;;;;;;;;12.68;100.00;96454.59;5026495;28;19970;-73
2023/09/20 00:37:30;;;;;;;;;;;;;;;12.67;100.00;96460.88;5043042;28;20277;-75
2023/09/20 00:39:55;;;;;;;;;;;;;;;12.67;100.00;96457.47;5043575;28;19954;-70
2023/09/20 00:42:21;;;;;;;;;;;;;;;12.66;100.00;96453.22;5026547;28;19950;-71
2023/09/20 00:44:47;;;;;;;;;;;;;;;12.64;100.00;96453.47;5026631;28;20141;-70
2023/09/20 00:47:14;;;;;;;;;;;;;;;12.63;100.00;96448.41;5026353;28;19966;-70
2023/09/20 00:49:46;;;;;;;;;;;;;;;12.61;100.00;96447.84;5026436;28;19957;-70
2023/09/20 00:52:13;;;;;;;;;;;;;;;12.61;100.00;96448.66;5042880;28;20151;-70
2023/09/20 00:54:40;;;;;;;;;;;;;;;12.60;100.00;96433.91;5042995;28;19942;-75
2023/09/20 00:57:07;;;;;;;;;;;;;;;12.61;100.00;96435.50;5080370;28;19958;-70
2023/09/20 00:59:34;;;;;;;;;;;;;;;12.63;100.00;96441.31;5105213;28;19955;-70
2023/09/20 01:02:01;;;;;;;;;;;;;;;12.63;100.00;96438.69;5105313;28;20209;-70
2023/09/20 01:04:28;;;;;;;;;;;;;;;12.62;100.00;96438.91;5104984;28;19956;-70
2023/09/20 01:06:54;;;;;;;;;;;;;;;12.59;100.00;96427.03;5104771;28;19963;-70
2023/09/20 01:09:22;;;;;;;;;;;;;;;12.57;100.00;96436.97;5105231;28;19957;-70
2023/09/20 01:11:48;;;;;;;;;;;;;;;12.53;100.00;96433.22;5104887;28;20249;-72
2023/09/20 01:14:14;;;;;;;;;;;;;;;12.51;100.00;96435.28;5086753;28;19963;-71
2023/09/20 01:16:41;;;;;;;;;;;;;;;12.48;100.00;96436.53;5104560;28;20000;-75
2023/09/20 01:19:07;;;;;;;;;;;;;;;12.46;100.00;96435.97;5105045;28;20029;-75
2023/09/20 01:21:39;;;;;;;;;;;;;;;12.47;100.00;96439.38;5104890;28;19953;-75
2023/09/20 01:24:05;;;;;;;;;;;;;;;12.46;100.00;96435.16;5104474;28;19955;-76
2023/09/20 01:26:30;;;;;;;;;;;;;;;12.46;100.00;96435.16;5104609;28;19959;-75
2023/09/20 01:28:56;;;;;;;;;;;;;;;12.44;100.00;96435.41;5104881;28;20117;-75
2023/09/20 01:31:22;;;;;;;;;;;;;;;12.45;100.00;96434.38;5103705;28;19955;-70
2023/09/20 01:33:48;;;;;;;;;;;;;;;12.44;100.00;96438.03;5086745;28;19962;-76
2023/09/20 01:36:15;;;;;;;;;;;;;;;12.43;100.00;96433.00;5104597;28;19953;-76
2023/09/20 01:38:42;;;;;;;;;;;;;;;12.42;100.00;96434.03;5104525;28;20144;-75
2023/09/20 01:41:08;;;;;;;;;;;;;;;12.39;100.00;96430.81;5104615;28;19948;-75
2023/09/20 01:43:36;;;;;;;;;;;;;;;12.40;100.00;96431.63;5104637;28;19953;-75
2023/09/20 01:46:03;;;;;;;;;;;;;;;12.39;100.00;96430.03;5104125;28;19956;-76
2023/09/20 01:48:29;;;;;;;;;;;;;;;12.38;100.00;96426.59;5104611;28;19958;-77
2023/09/20 01:50:54;;;;;;;;;;;;;;;12.38;100.00;96426.59;5104125;28;19935;-73
2023/09/20 01:53:20;;;;;;;;;;;;;;;12.38;100.00;96428.41;5104189;28;20118;-71
2023/09/20 01:55:47;;;;;;;;;;;;;;;12.37;100.00;96427.63;5086725;28;19964;-71
2023/09/20 01:58:13;;;;;;;;;;;;;;;12.35;100.00;96423.63;5069944;28;19958;-71
2023/09/20 02:00:42;;;;;;;;;;;;;;;12.36;100.00;96425.22;5104532;28;19955;-71
2023/09/20 02:03:14;;;;;;;;;;;;;;;12.33;100.00;96421.22;5085998;28;19958;-72
2023/09/20 02:05:40;;;;;;;;;;;;;;;12.32;100.00;96411.72;5104606;28;19947;-71
2023/09/20 02:08:08;;;;;;;;;;;;;;;12.33;100.00;96413.34;5104782;28;19966;-72
2023/09/20 02:10:36;;;;;;;;;;;;;;;12.32;100.00;96411.72;5104555;28;20093;-72
2023/09/20 02:13:03;;;;;;;;;;;;;;;12.31;100.00;96409.34;5086282;28;19956;-73
2023/09/20 02:15:30;;;;;;;;;;;;;;;12.31;100.00;96411.97;5103811;28;19939;-72
2023/09/20 02:17:56;;;;;;;;;;;;;;;12.30;100.00;96408.53;5104575;28;19953;-71
2023/09/20 02:20:23;;;;;;;;;;;;;;;12.29;100.00;96414.03;5069890;28;19957;-74
2023/09/20 02:22:50;;;;;;;;;;;;;;;12.27;100.00;96411.63;5104168;28;20229;-72
2023/09/20 02:25:24;;;;;;;;;;;;;;;12.26;100.00;96412.63;5103936;28;19957;-76
2023/09/20 02:27:51;;;;;;;;;;;;;;;12.25;100.00;96411.03;5086206;28;19963;-72
2023/09/20 02:30:24;;;;;;;;;;;;;;;12.25;100.00;96412.88;5086205;28;19954;-76
2023/09/20 02:32:52;;;;;;;;;;;;;;;12.24;100.00;96422.59;5104363;28;19951;-76
2023/09/20 02:35:18;;;;;;;;;;;;;;;12.21;100.00;96420.41;5104056;28;19958;-75
2023/09/20 02:37:46;;;;;;;;;;;;;;;12.19;100.00;96418.00;5104129;28;19955;-76
2023/09/20 02:40:15;;;;;;;;;;;;;;;12.17;100.00;96424.53;5104191;28;19957;-75
2023/09/20 02:42:45;;;;;;;;;;;;;;;12.16;100.00;96425.56;5106829;28;19955;-75
2023/09/20 02:45:12;;;;;;;;;;;;;;;12.15;100.00;96416.06;5108093;28;19959;-71
2023/09/20 02:47:42;;;;;;;;;;;;;;;12.11;100.00;96404.41;5072965;28;19983;-72
2023/09/20 02:50:08;;;;;;;;;;;;;;;12.03;100.00;96405.53;5089137;28;19956;-72
2023/09/20 02:52:34;;;;;;;;;;;;;;;11.99;100.00;96404.41;5107547;28;19956;-72
2023/09/20 02:55:17;;;;;;;;;;;;;;;11.96;100.00;96405.66;5089586;28;19954;-72
2023/09/20 02:57:44;;;;;;;;;;;;;;;11.94;100.00;96397.19;5107731;28;19958;-73
2023/09/20 03:00:21;;;;;;;;;;;;;;;11.94;100.00;96391.16;5107580;28;20239;-72
2023/09/20 03:02:49;;;;;;;;;;;;;;;11.91;100.00;96395.03;5107569;28;19953;-70
2023/09/20 03:05:19;;;;;;;;;;;;;;;11.91;100.00;96389.78;5089548;28;19942;-75
2023/09/20 03:07:46;;;;;;;;;;;;;;;11.92;100.00;96394.00;5107099;28;19975;-76
2023/09/20 03:10:13;;;;;;;;;;;;;;;11.91;100.00;96389.00;5106983;28;19953;-75
2023/09/20 03:12:41;;;;;;;;;;;;;;;11.92;100.00;96393.19;5106947;28;19958;-75
2023/09/20 03:15:10;;;;;;;;;;;;;;;11.92;100.00;96378.22;5107403;28;19967;-76
2023/09/20 03:17:37;;;;;;;;;;;;;;;11.92;100.00;96386.13;5106903;28;20137;-76
2023/09/20 03:20:16;;;;;;;;;;;;;;;11.88;100.00;96384.97;5088997;28;19959;-72
2023/09/20 03:22:42;;;;;;;;;;;;;;;11.87;100.00;96383.34;5107214;28;19957;-75
2023/09/20 03:25:17;;;;;;;;;;;;;;;11.83;100.00;96378.78;5107108;28;20179;-70
2023/09/20 03:27:43;;;;;;;;;;;;;;;11.81;100.00;96383.47;5072350;28;19967;-70
2023/09/20 03:30:13;;;;;;;;;;;;;;;11.78;100.00;96382.09;5107008;28;19960;-70
2023/09/20 03:32:42;;;;;;;;;;;;;;;11.78;100.00;96374.22;5106679;28;20110;-70
2023/09/20 03:35:09;;;;;;;;;;;;;;;11.76;100.00;96369.19;5088401;28;19958;-70
2023/09/20 03:37:39;;;;;;;;;;;;;;;11.76;100.00;96381.53;5088418;28;19955;-70
2023/09/20 03:40:06;;;;;;;;;;;;;;;11.73;100.00;96379.34;5106541;28;19960;-72
2023/09/20 03:42:33;;;;;;;;;;;;;;;11.70;100.00;96372.72;5071903;28;19955;-73
2023/09/20 03:44:59;;;;;;;;;;;;;;;11.69;100.00;96373.72;5106535;28;19956;-73
2023/09/20 03:47:28;;;;;;;;;;;;;;;11.68;100.00;96371.34;5106033;28;19967;-74
2023/09/20 03:49:53;;;;;;;;;;;;;;;11.65;100.00;96380.44;5106562;28;19956;-73
2023/09/20 03:52:19;;;;;;;;;;;;;;;11.63;100.00;96376.44;5106529;28;20246;-73
2023/09/20 03:54:49;;;;;;;;;;;;;;;11.62;100.00;96367.78;5105960;28;19949;-73
2023/09/20 03:57:15;;;;;;;;;;;;;;;11.62;100.00;96375.66;5106697;28;19959;-76
2023/09/20 03:59:41;;;;;;;;;;;;;;;11.62;100.00;96367.78;5106587;28;19953;-75
2023/09/20 04:02:13;;;;;;;;;;;;;;;11.64;100.00;96362.31;5106311;28;19956;-72
2023/09/20 04:04:40;;;;;;;;;;;;;;;11.66;100.00;96365.50;5088597;28;19950;-72
2023/09/20 04:07:06;;;;;;;;;;;;;;;11.68;100.00;96373.97;5106167;28;19959;-73
2023/09/20 04:09:32;;;;;;;;;;;;;;;11.67;100.00;96367.09;5106059;28;19962;-72
2023/09/20 04:11:59;;;;;;;;;;;;;;;11.65;100.00;96371.78;5087720;28;19957;-72
2023/09/20 04:14:25;;;;;;;;;;;;;;;11.60;100.00;96375.09;5106192;28;19950;-73
2023/09/20 04:16:53;;;;;;;;;;;;;;;11.53;100.00;96359.44;5105526;28;20152;-76
2023/09/20 04:19:22;;;;;;;;;;;;;;;11.50;100.00;96340.69;5087535;28;19955;-71
2023/09/20 04:21:49;;;;;;;;;;;;;;;11.47;100.00;96347.19;5105692;28;19946;-71
2023/09/20 04:24:15;;;;;;;;;;;;;;;11.48;100.00;96340.91;5088135;28;19958;-71
2023/09/20 04:26:41;;;;;;;;;;;;;;;11.49;100.00;96345.16;5106003;28;20258;-71
2023/09/20 04:29:07;;;;;;;;;;;;;;;11.52;100.00;96343.91;5106016;28;19989;-71
2023/09/20 04:31:33;;;;;;;;;;;;;;;11.54;100.00;96341.84;5105400;28;20223;-71
2023/09/20 04:33:59;;;;;;;;;;;;;;;11.57;100.00;96339.56;5105747;28;19982;-71
2023/09/20 04:36:27;;;;;;;;;;;;;;;11.60;100.00;96343.56;5087268;28;20152;-74
2023/09/20 04:38:54;;;;;;;;;;;;;;;11.62;100.00;96352.03;5105630;28;20136;-72
2023/09/20 04:41:21;;;;;;;;;;;;;;;11.61;100.00;96349.63;5087428;28;20152;-72
2023/09/20 04:43:47;;;;;;;;;;;;;;;11.62;100.00;96351.22;5105492;28;19938;-72
2023/09/20 04:46:13;;;;;;;;;;;;;;;11.60;100.00;96356.69;5105062;28;20240;-72
2023/09/20 04:48:40;;;;;;;;;;;;;;;11.58;100.00;96348.25;5087103;28;19984;-72
2023/09/20 04:51:06;;;;;;;;;;;;;;;11.56;100.00;96352.91;5105703;28;20132;-73
2023/09/20 04:53:35;;;;;;;;;;;;;;;11.53;100.00;96348.13;5105472;28;19953;-71
2023/09/20 04:56:02;;;;;;;;;;;;;;;11.51;100.00;96350.97;5105013;28;19975;-72
2023/09/20 04:58:28;;;;;;;;;;;;;;;11.49;100.00;96352.25;5105241;28;19954;-72
2023/09/20 05:00:54;;;;;;;;;;;;;;;11.48;100.00;96348.78;5086933;28;20297;-72
2023/09/20 05:03:20;;;;;;;;;;;;;;;11.49;100.00;96346.97;5104965;28;19976;-71
2023/09/20 05:05:50;;;;;;;;;;;;;;;11.49;100.00;96350.41;5086899;28;19966;-72
2023/09/20 05:08:16;;;;;;;;;;;;;;;11.50;100.00;96338.06;5086778;28;19958;-72
2023/09/20 05:10:43;;;;;;;;;;;;;;;11.49;100.00;96334.66;5105063;28;19954;-71
2023/09/20 05:13:09;;;;;;;;;;;;;;;11.50;100.00;96333.59;5105128;28;20132;-77
2023/09/20 05:15:38;;;;;;;;;;;;;;;11.49;100.00;96347.78;5104481;28;19957;-72
2023/09/20 05:18:05;;;;;;;;;;;;;;;11.50;100.00;96345.94;5086889;28;20009;-71
2023/09/20 05:20:31;;;;;;;;;;;;;;;11.49;100.00;96339.91;5105015;28;19974;-72
2023/09/20 05:23:00;;;;;;;;;;;;;;;11.48;100.00;96346.16;5104833;28;19949;-71
2023/09/20 05:25:26;;;;;;;;;;;;;;;11.47;100.00;96346.41;5105051;28;19964;-72
2023/09/20 05:27:54;;;;;;;;;;;;;;;11.45;100.00;96349.25;5086298;28;19969;-71
2023/09/20 05:30:20;;;;;;;;;;;;;;;11.47;100.00;96351.66;5104630;28;19958;-72
2023/09/20 05:32:50;;;;;;;;;;;;;;;11.48;100.00;96348.78;5069993;28;19949;-73
2023/09/20 05:35:17;;;;;;;;;;;;;;;11.52;100.00;96354.41;5069744;28;19967;-74
2023/09/20 05:37:43;;;;;;;;;;;;;;;11.53;100.00;96359.44;5086601;28;20245;-74
2023/09/20 05:40:18;;;;;;;;;;;;;;;11.54;100.00;96363.66;5086572;28;20235;-74
2023/09/20 05:42:45;;;;;;;;;;;;;;;11.56;100.00;96358.19;5104975;28;19940;-74
2023/09/20 05:45:12;;;;;;;;;;;;;;;11.63;100.00;96366.75;5104942;28;19955;-74
2023/09/20 05:47:40;;;;;;;;;;;;;;;11.85;100.00;96355.72;5104871;28;20147;-76
2023/09/20 05:50:10;;;;;;;;;;;;;;;12.17;100.00;96351.72;5104629;28;19951;-72
2023/09/20 05:52:43;;;;;;;;;;;;;;;12.61;100.00;96358.41;5086071;28;19964;-77
2023/09/20 05:55:13;;;;;;;;;;;;;;;12.88;100.00;96350.78;5104795;28;19958;-77
2023/09/20 05:57:40;;;;;;;;;;;;;;;13.22;100.00;96341.13;5104680;28;19949;-76
2023/09/20 06:00:11;;;;;;;;;;;;;;;13.62;100.00;96340.22;5104479;28;19959;-76
2023/09/20 06:02:37;;;;;;;;;;;;;;;13.99;100.00;96330.00;5104638;28;19954;-77
2023/09/20 06:05:04;;;;;;;;;;;;;;;14.25;100.00;96325.06;5104550;28;19957;-77
2023/09/20 06:07:30;;;;;;;;;;;;;;;14.48;100.00;96320.59;5104649;28;19963;-74
2023/09/20 06:09:56;;;;;;;;;;;;;;;14.78;100.00;96321.00;5104523;28;20041;-72
2023/09/20 06:12:22;;;;;;;;;;;;;;;15.09;100.00;96316.00;5104546;28;19954;-71
2023/09/20 06:14:48;;;;;;;;;;;;;;;15.40;100.00;96311.00;5086376;28;19963;-70
2023/09/20 06:17:14;;;;;;;;;;;;;;;15.65;100.00;96307.78;5087901;28;19956;-71
2023/09/20 06:19:39;;;;;;;;;;;;;;;15.86;100.00;96300.03;5089798;28;20144;-71
2023/09/20 06:22:05;;;;;;;;;;;;;;;16.02;100.00;96286.63;5108002;28;20264;-71
2023/09/20 06:24:31;;;;;;;;;;;;;;;16.17;100.00;96287.78;5108136;28;19951;-72
2023/09/20 06:26:58;;;;;;;;;;;;;;;16.29;100.00;96282.25;5108059;28;19954;-74
2023/09/20 06:29:24;;;;;;;;;;;;;;;16.35;100.00;96273.28;5089793;28;19968;-78
2023/09/20 06:31:51;;;;;;;;;;;;;;;16.38;100.00;96284.16;5108094;28;19950;-78
2023/09/20 06:34:22;;;;;;;;;;;;;;;16.39;100.00;96264.56;5107974;28;19961;-77
2023/09/20 06:36:47;;;;;;;;;;;;;;;16.34;100.00;96272.50;5107539;28;19936;-78
2023/09/20 06:39:13;;;;;;;;;;;;;;;16.31;100.00;96278.28;5108025;28;19977;-77
2023/09/20 06:41:42;;;;;;;;;;;;;;;16.23;100.00;96270.84;5107796;28;20248;-77
2023/09/20 06:44:07;;;;;;;;;;;;;;;16.26;100.00;96272.97;5107495;28;19976;-81
2023/09/20 06:46:34;;;;;;;;;;;;;;;16.36;100.00;96280.97;5107388;28;19955;-72
2023/09/20 06:49:00;;;;;;;;;;;;;;;16.44;100.00;96267.25;5072758;28;19968;-72
2023/09/20 06:51:26;;;;;;;;;;;;;;;16.39;100.00;96267.22;5089293;28;19949;-72
2023/09/20 06:53:58;;;;;;;;;;;;;;;16.12;100.00;96269.22;5107490;28;19983;-72
2023/09/20 06:56:25;;;;;;;;;;;;;;;15.79;100.00;96265.84;5072756;28;19955;-71
2023/09/20 06:58:55;;;;;;;;;;;;;;;15.59;100.00;96277.84;5107511;28;19954;-71
2023/09/20 07:01:25;;;;;;;;;;;;;;;15.60;100.00;96295.31;5107349;28;20234;-78
2023/09/20 07:03:52;;;;;;;;;;;;;;;15.49;100.00;96280.41;5107156;28;19933;-80
2023/09/20 07:06:19;;;;;;;;;;;;;;;15.40;100.00;96280.09;5107416;28;19958;-81
2023/09/20 07:08:45;;;;;;;;;;;;;;;15.28;100.00;96283.94;5106769;28;19957;-80
2023/09/20 07:11:12;;;;;;;;;;;;;;;15.11;100.00;96290.16;5107066;28;20259;-80
2023/09/20 07:13:37;;;;;;;;;;;;;;;14.98;100.00;96301.91;5088852;28;19953;-80
2023/09/20 07:16:06;;;;;;;;;;;;;;;14.89;100.00;96306.06;5107228;28;20000;-80
2023/09/20 07:18:32;;;;;;;;;;;;;;;14.88;100.00;96311.56;5107244;28;20116;-80
2023/09/20 07:20:58;;;;;;;;;;;;;;;14.84;100.00;96297.28;5107059;28;20026;-71
2023/09/20 07:23:24;;;;;;;;;;;;;;;14.81;100.00;96307.28;5107012;28;19958;-75
2023/09/20 07:25:50;;;;;;;;;;;;;;;14.85;100.00;96317.38;5107041;28;19942;-74
2023/09/20 07:28:16;;;;;;;;;;;;;;;14.86;100.00;96305.75;5105763;28;19966;-74
2023/09/20 07:30:46;;;;;;;;;;;;;;;14.93;100.00;96293.94;5088717;28;19955;-74
2023/09/20 07:33:14;;;;;;;;;;;;;;;15.26;100.00;96292.13;5106919;28;20103;-74
2023/09/20 07:35:47;;;;;;;;;;;;;;;15.63;100.00;96275.50;5088130;28;19966;-73
2023/09/20 07:38:18;;;;;;;;;;;;;;;16.01;100.00;96276.31;5106796;28;20156;-73
2023/09/20 07:40:45;;;;;;;;;;;;;;;16.46;100.00;96247.63;5106336;28;19959;-73
2023/09/20 07:43:11;;;;;;;;;;;;;;;16.86;100.00;96225.00;5106387;28;19953;-73
2023/09/20 07:45:41;;;;;;;;;;;;;;;17.15;100.00;96215.47;5106654;28;20314;-73
2023/09/20 07:48:12;;;;;;;;;;;;;;;17.44;100.00;96217.59;5088360;28;20001;-73
2023/09/20 07:50:55;;;;;;;;;;;;;;;17.67;100.00;96212.78;5106644;28;19957;-73
2023/09/20 07:53:21;;;;;;;;;;;;;;;17.95;100.00;96206.09;5106345;28;20234;-73
2023/09/20 07:56:06;;;;;;;;;;;;;;;18.23;99.56;96208.13;5106416;28;19965;-73
2023/09/20 07:58:36;;;;;;;;;;;;;;;18.38;97.86;96196.63;5088589;28;20145;-72
2023/09/20 08:01:10;;;;;;;;;;;;;;;18.38;95.98;96182.56;5088477;28;20251;-72
2023/09/20 08:03:36;;;;;;;;;;;;;;;18.21;95.80;96185.56;5106238;28;19955;-70
2023/09/20 08:06:08;;;;;;;;;;;;;;;18.13;99.20;96204.72;5106174;28;19974;-70
2023/09/20 08:08:36;;;;;;;;;;;;;;;18.23;100.00;96204.66;5105454;28;20457;-70
2023/09/20 08:11:02;;;;;;;;;;;;;;;18.40;98.96;96194.50;5105663;28;19952;-70
2023/09/20 08:13:28;;;;;;;;;;;;;;;18.57;97.15;96183.50;5106127;28;19958;-70
2023/09/20 08:15:54;;;;;;;;;;;;;;;18.61;98.51;96205.78;5106076;28;19960;-74
2023/09/20 08:21:04;;;;;;;;;;;;;;;18.60;96.40;96198.88;5105967;28;19954;-73
2023/09/20 09:01:59;;;;;;;;;;;;;;;19.26;100.00;96215.47;5105265;28;20143;-70
2023/09/20 09:04:25;;;;;;;;;;;;;;;19.30;96.85;96194.41;5105094;28;19955;-70
2023/09/20 09:06:50;;;;;;;;;;;;;;;19.36;95.43;96193.28;5104978;28;20005;-70
2023/09/20 09:09:16;;;;;;;;;;;;;;;19.40;94.84;96183.69;5105139;28;19957;-70
2023/09/20 09:11:44;;;;;;;;;;;;;;;19.40;96.72;96195.13;5105080;28;20133;-70
2023/09/20 09:14:10;;;;;;;;;;;;;;;19.48;94.63;96183.88;5104984;28;19945;-71
2023/09/20 09:16:37;;;;;;;;;;;;;;;19.50;92.36;96161.53;5104940;28;20210;-70
2023/09/20 09:19:03;;;;;;;;;;;;;;;19.41;93.65;96172.78;5105092;28;19964;-72
2023/09/20 09:21:30;;;;;;;;;;;;;;;19.23;94.21;96176.13;5086735;28;19954;-72
2023/09/20 09:23:56;;;;;;;;;;;;;;;19.09;96.69;96188.47;5104750;28;19957;-72
2023/09/20 09:26:25;;;;;;;;;;;;;;;19.08;98.60;96198.31;5086593;28;19946;-72
2023/09/20 09:28:51;;;;;;;;;;;;;;;19.09;98.73;96185.81;5104343;28;19967;-75
2023/09/20 09:31:17;;;;;;;;;;;;;;;19.20;100.00;96201.41;5104896;28;19949;-70
2023/09/20 09:33:43;;;;;;;;;;;;;;;19.36;99.75;96190.63;5104647;28;19964;-70
2023/09/20 09:36:10;;;;;;;;;;;;;;;19.51;99.63;96192.34;5086810;28;19959;-70
2023/09/20 09:38:39;;;;;;;;;;;;;;;19.61;97.14;96163.81;5104645;28;20222;-70
2023/09/20 09:41:08;;;;;;;;;;;;;;;19.68;96.75;96161.59;5104737;28;19960;-70
2023/09/20 09:43:34;;;;;;;;;;;;;;;19.74;94.55;96141.09;5104859;28;20113;-70
2023/09/20 09:46:03;;;;;;;;;;;;;;;19.80;96.88;96147.13;5104343;28;19952;-70
2023/09/20 09:48:31;;;;;;;;;;;;;;;19.84;94.00;96129.50;5086549;28;19960;-72
2023/09/20 09:50:57;;;;;;;;;;;;;;;19.91;94.02;96126.50;5104807;28;19959;-75
2023/09/20 09:53:24;;;;;;;;;;;;;;;19.96;96.59;96147.75;5108665;28;19958;-74
2023/09/20 09:55:51;;;;;;;;;;;;;;;20.01;96.85;96142.34;5109352;28;19956;-74
2023/09/20 09:58:17;;;;;;;;;;;;;;;20.02;94.23;96127.97;5108746;28;20110;-75
2023/09/20 10:00:47;;;;;;;;;;;;;;;20.07;92.78;96115.41;5108720;28;19963;-75
2023/09/20 10:03:23;;;;;;;;;;;;;;;20.15;93.55;96124.59;5108605;28;19956;-75
2023/09/20 10:05:55;;;;;;;;;;;;;;;20.22;88.00;96086.97;5108710;28;20190;-71
2023/09/20 10:08:24;;;;;;;;;;;;;;;20.32;87.37;96070.84;5108552;28;19961;-70
2023/09/20 10:10:50;;;;;;;;;;;;;;;20.42;84.83;96059.25;5108457;28;19985;-70
2023/09/20 10:13:16;;;;;;;;;;;;;;;20.49;86.34;96078.31;5108461;28;19962;-70
2023/09/20 10:15:45;;;;;;;;;;;;;;;20.56;86.11;96075.28;5090059;28;20352;-71
2023/09/20 10:18:11;;;;;;;;;;;;;;;20.62;87.03;96072.28;5108295;28;19950;-70
2023/09/20 10:21:18;;;;;;;;;;;;;;;20.71;83.92;96056.41;5108352;28;19956;-71
2023/09/20 10:23:47;;;;;;;;;;;;;;;20.81;85.75;96061.56;5029411;28;19957;-77
2023/09/20 10:26:13;;;;;;;;;;;;;;;20.88;84.50;96059.31;5045613;28;19957;-74
2023/09/20 10:28:45;;;;;;;;;;;;;;;20.99;85.65;96069.81;5077459;28;19965;-76
2023/09/20 10:31:15;;;;;;;;;;;;;;;21.08;87.58;96073.34;5107756;28;19960;-84
2023/09/20 10:33:51;;;;;;;;;;;;;;;21.16;81.15;96030.00;5107647;28;19948;-84
2023/09/20 10:36:19;;;;;;;;;;;;;;;21.28;86.57;96067.66;5108139;28;19980;-84
2023/09/20 10:38:46;;;;;;;;;;;;;;;21.43;82.00;96034.59;5089815;28;20243;-85
2023/09/20 10:41:13;;;;;;;;;;;;;;;21.56;85.16;96049.00;5107907;28;19955;-84
2023/09/20 10:43:38;;;;;;;;;;;;;;;21.69;79.61;96008.19;5108619;28;19946;-72
2023/09/20 10:46:07;;;;;;;;;;;;;;;21.87;83.23;96053.72;5072803;28;19959;-73
2023/09/20 10:48:33;;;;;;;;;;;;;;;22.06;82.65;96043.69;5107722;28;20258;-73
2023/09/20 10:50:59;;;;;;;;;;;;;;;22.22;82.45;96072.72;5107690;28;19953;-74
2023/09/20 10:54:03;;;;;;;;;;;;;;;22.37;79.76;96077.75;5107993;28;20216;-73
2023/09/20 10:56:49;;;;;;;;;;;;;;;22.50;80.15;96090.25;5089410;28;19958;-73
2023/09/20 10:59:18;;;;;;;;;;;;;;;22.67;79.41;96078.13;5089217;28;19961;-73
2023/09/20 11:01:59;;;;;;;;;;;;;;;22.79;75.39;96066.88;5107403;28;19950;-73
2023/09/20 11:04:25;;;;;;;;;;;;;;;22.90;72.28;96062.84;5107418;28;19965;-76
2023/09/20 11:06:55;;;;;;;;;;;;;;;22.98;68.19;96059.44;5106965;28;20248;-76
2023/09/20 11:09:24;;;;;;;;;;;;;;;23.05;69.56;96077.72;5107362;28;19955;-76
2023/09/20 11:11:50;;;;;;;;;;;;;;;23.21;70.16;96076.25;5107293;28;19960;-75
2023/09/20 11:14:18;;;;;;;;;;;;;;;23.42;69.59;96070.34;5088798;28;19949;-76
2023/09/20 11:16:44;;;;;;;;;;;;;;;23.51;69.30;96076.50;5107199;28;19967;-76
2023/09/20 11:19:13;;;;;;;;;;;;;;;23.65;72.04;96084.44;5107020;28;19956;-70
2023/09/20 11:21:42;;;;;;;;;;;;;;;23.73;68.05;96075.66;5071949;28;19961;-78
2023/09/20 11:24:17;;;;;;;;;;;;;;;23.83;67.22;96078.06;5107142;28;19953;-72
2023/09/20 11:26:47;;;;;;;;;;;;;;;23.98;67.90;96071.47;5107048;28;20132;-73
2023/09/20 11:29:16;;;;;;;;;;;;;;;24.11;67.89;96070.53;5106330;28;19961;-74
2023/09/20 11:31:44;;;;;;;;;;;;;;;24.18;67.12;96077.31;5106731;28;19965;-73
2023/09/20 11:34:10;;;;;;;;;;;;;;;24.24;62.36;96062.66;5107063;28;19971;-73
2023/09/20 11:36:37;;;;;;;;;;;;;;;24.31;58.75;96062.97;5106989;28;19953;-73
2023/09/20 11:39:04;;;;;;;;;;;;;;;24.36;62.34;96053.97;5106891;28;19957;-74
2023/09/20 11:41:30;;;;;;;;;;;;;;;24.28;56.58;96053.66;5072116;28;19959;-75
2023/09/20 11:43:56;;;;;;;;;;;;;;;24.33;62.51;96060.75;5088343;28;20266;-76
2023/09/20 11:46:26;;;;;;;;;;;;;;;24.43;59.27;96057.75;5106428;28;19954;-75
2023/09/20 11:48:56;;;;;;;;;;;;;;;24.54;59.25;96050.22;5105988;28;20279;-75
2023/09/20 11:51:22;;;;;;;;;;;;;;;24.50;57.83;96047.38;5106533;28;19952;-75
2023/09/20 11:53:48;;;;;;;;;;;;;;;24.42;60.61;96052.72;5106505;28;20065;-76
2023/09/20 11:56:22;;;;;;;;;;;;;;;24.48;59.82;96049.56;5106434;28;19946;-84
2023/09/20 11:58:49;;;;;;;;;;;;;;;24.55;60.90;96051.00;5088400;28;19952;-76
2023/09/20 12:01:21;;;;;;;;;;;;;;;24.54;57.35;96042.16;5106426;28;19954;-77
2023/09/20 12:03:47;;;;;;;;;;;;;;;24.52;58.01;96044.38;5088195;28;19955;-77
2023/09/20 12:06:12;;;;;;;;;;;;;;;24.60;56.30;96051.63;5088239;28;19956;-77
2023/09/20 12:08:38;;;;;;;;;;;;;;;24.62;57.17;96037.91;5106128;28;19971;-77
2023/09/20 12:11:04;;;;;;;;;;;;;;;24.58;53.06;96036.97;5105959;28;19951;-77
2023/09/20 12:13:30;;;;;;;;;;;;;;;24.59;57.18;96033.97;5106472;28;19952;-77
2023/09/20 12:15:56;;;;;;;;;;;;;;;24.69;57.79;96030.16;5105392;28;20208;-73
2023/09/20 12:18:22;;;;;;;;;;;;;;;24.86;59.43;96032.81;5087854;28;20274;-76
2023/09/20 12:20:48;;;;;;;;;;;;;;;25.02;55.17;96021.56;5106009;28;19964;-75
2023/09/20 12:23:14;;;;;;;;;;;;;;;25.17;59.59;96025.59;5105955;28;19969;-76
2023/09/20 12:25:40;;;;;;;;;;;;;;;25.19;55.03;96020.69;5105661;28;19950;-76
2023/09/20 12:28:07;;;;;;;;;;;;;;;25.23;58.56;96018.97;5105874;28;20259;-76
2023/09/20 12:30:32;;;;;;;;;;;;;;;25.27;57.40;96009.16;5087934;28;19964;-76
2023/09/20 12:32:59;;;;;;;;;;;;;;;25.29;56.20;96009.63;5105827;28;19948;-73
2023/09/20 12:35:26;;;;;;;;;;;;;;;25.33;56.94;96004.41;5087023;28;19962;-87
2023/09/20 12:37:53;;;;;;;;;;;;;;;25.49;58.72;96000.03;5105687;28;19956;-86
2023/09/20 12:40:21;;;;;;;;;;;;;;;25.59;58.00;95982.78;5070796;28;19962;-86
2023/09/20 12:42:48;;;;;;;;;;;;;;;25.60;58.76;95979.78;5105430;28;19975;-86
2023/09/20 12:45:14;;;;;;;;;;;;;;;25.60;54.81;95977.09;5105424;28;20136;-87
2023/09/20 12:47:42;;;;;;;;;;;;;;;25.61;55.70;95983.22;5087223;28;19967;-87
2023/09/20 12:50:12;;;;;;;;;;;;;;;25.57;54.19;95985.78;5105395;28;20150;-86
2023/09/20 12:52:38;;;;;;;;;;;;;;;25.52;54.55;95976.03;5105636;28;19945;-73
2023/09/20 12:55:04;;;;;;;;;;;;;;;25.47;57.12;95981.59;5105511;28;19956;-73
2023/09/20 12:57:30;;;;;;;;;;;;;;;25.42;55.49;95979.06;5105318;28;20220;-73
2023/09/20 12:59:57;;;;;;;;;;;;;;;25.35;55.13;95975.34;5086599;28;19956;-73
2023/09/20 13:02:23;;;;;;;;;;;;;;;25.39;57.58;95969.00;5104864;28;19956;-73
2023/09/20 13:04:52;;;;;;;;;;;;;;;25.49;58.18;95965.94;5086849;28;20263;-72
2023/09/20 13:07:18;;;;;;;;;;;;;;;25.56;55.11;95954.69;5070378;28;19975;-73
2023/09/20 13:09:44;;;;;;;;;;;;;;;25.67;59.63;95953.16;5086878;28;20314;-73
2023/09/20 13:12:11;;;;;;;;;;;;;;;25.81;57.13;95950.22;5104903;28;19949;-71
2023/09/20 13:14:37;;;;;;;;;;;;;;;25.83;57.65;95957.94;5104964;28;19955;-73
2023/09/20 13:17:03;;;;;;;;;;;;;;;25.93;56.98;95944.16;5086617;28;19975;-73
2023/09/20 13:19:29;;;;;;;;;;;;;;;25.92;56.19;95946.06;5086669;28;19975;-73
2023/09/20 13:21:59;;;;;;;;;;;;;;;25.91;56.80;95947.19;5105074;28;19974;-74
2023/09/20 13:24:25;;;;;;;;;;;;;;;25.99;58.11;95942.84;5105185;28;19962;-73